sensor_id;sensor_type;location;lat;lon;timestamp;P1;durP1;ratioP1;P2;durP2;ratioP2
59907;SDS011;61804;54.926;73.496;2022-09-09T00:01:45;3.05;;;2.42;;
59907;SDS011;61804;54.926;73.496;2022-09-09T00:04:32;3.80;;;2.25;;
59907;SDS011;61804;54.926;73.496;2022-09-09T00:09:47;2.53;;;2.10;;
59907;SDS011;61804;54.926;73.496;2022-09-09T00:15:06;8.30;;;2.58;;
59907;SDS011;61804;54.926;73.496;2022-09-09T00:17:42;3.80;;;1.90;;
59907;SDS011;61804;54.926;73.496;2022-09-09T00:21:00;6.28;;;2.70;;
59907;SDS011;61804;54.926;73.496;2022-09-09T00:23:25;2.40;;;1.95;;
59907;SDS011;61804;54.926;73.496;2022-09-09T00:25:55;3.72;;;2.20;;
59907;SDS011;61804;54.926;73.496;2022-09-09T00:28:25;21.42;;;5.43;;
59907;SDS011;61804;54.926;73.496;2022-09-09T00:31:18;11.55;;;2.92;;
59907;SDS011;61804;54.926;73.496;2022-09-09T00:33:58;3.45;;;2.40;;
59907;SDS011;61804;54.926;73.496;2022-09-09T00:36:40;5.93;;;3.13;;
59907;SDS011;61804;54.926;73.496;2022-09-09T00:42:18;4.40;;;3.08;;
59907;SDS011;61804;54.926;73.496;2022-09-09T00:47:39;12.18;;;6.03;;
59907;SDS011;61804;54.926;73.496;2022-09-09T00:50:17;6.40;;;2.85;;
59907;SDS011;61804;54.926;73.496;2022-09-09T00:56:00;7.03;;;3.20;;
59907;SDS011;61804;54.926;73.496;2022-09-09T00:58:38;4.93;;;2.97;;
59907;SDS011;61804;54.926;73.496;2022-09-09T01:01:09;2.92;;;2.60;;
59907;SDS011;61804;54.926;73.496;2022-09-09T01:16:43;3.55;;;2.42;;
59907;SDS011;61804;54.926;73.496;2022-09-09T01:19:15;6.32;;;4.80;;
59907;SDS011;61804;54.926;73.496;2022-09-09T01:24:33;4.35;;;3.05;;
59907;SDS011;61804;54.926;73.496;2022-09-09T01:27:16;7.45;;;3.35;;
59907;SDS011;61804;54.926;73.496;2022-09-09T01:29:45;9.80;;;4.07;;
59907;SDS011;61804;54.926;73.496;2022-09-09T01:35:00;3.60;;;2.80;;
59907;SDS011;61804;54.926;73.496;2022-09-09T01:37:29;5.93;;;3.47;;
59907;SDS011;61804;54.926;73.496;2022-09-09T01:39:57;3.67;;;2.90;;
59907;SDS011;61804;54.926;73.496;2022-09-09T01:42:26;5.68;;;3.20;;
59907;SDS011;61804;54.926;73.496;2022-09-09T01:44:54;8.52;;;3.78;;
59907;SDS011;61804;54.926;73.496;2022-09-09T01:47:23;7.07;;;3.05;;
59907;SDS011;61804;54.926;73.496;2022-09-09T01:50:17;5.90;;;2.88;;
59907;SDS011;61804;54.926;73.496;2022-09-09T01:52:47;3.17;;;2.88;;
59907;SDS011;61804;54.926;73.496;2022-09-09T01:55:20;14.65;;;3.17;;
59907;SDS011;61804;54.926;73.496;2022-09-09T02:00:33;2.60;;;2.22;;
59907;SDS011;61804;54.926;73.496;2022-09-09T02:03:08;3.53;;;2.50;;
59907;SDS011;61804;54.926;73.496;2022-09-09T02:06:02;3.60;;;2.53;;
59907;SDS011;61804;54.926;73.496;2022-09-09T02:08:45;7.85;;;3.53;;
59907;SDS011;61804;54.926;73.496;2022-09-09T02:11:21;6.68;;;3.17;;
59907;SDS011;61804;54.926;73.496;2022-09-09T02:14:06;3.58;;;2.50;;
59907;SDS011;61804;54.926;73.496;2022-09-09T02:16:42;3.90;;;2.63;;
59907;SDS011;61804;54.926;73.496;2022-09-09T02:19:22;5.03;;;2.58;;
59907;SDS011;61804;54.926;73.496;2022-09-09T02:22:12;2.90;;;1.90;;
59907;SDS011;61804;54.926;73.496;2022-09-09T02:24:40;4.82;;;2.30;;
59907;SDS011;61804;54.926;73.496;2022-09-09T02:27:14;10.43;;;2.72;;
59907;SDS011;61804;54.926;73.496;2022-09-09T02:29:47;6.65;;;3.70;;
59907;SDS011;61804;54.926;73.496;2022-09-09T02:32:23;3.42;;;2.60;;
59907;SDS011;61804;54.926;73.496;2022-09-09T02:34:58;9.95;;;3.05;;
59907;SDS011;61804;54.926;73.496;2022-09-09T02:37:27;3.05;;;2.08;;
59907;SDS011;61804;54.926;73.496;2022-09-09T02:39:57;3.70;;;2.30;;
59907;SDS011;61804;54.926;73.496;2022-09-09T02:42:37;5.40;;;1.92;;
59907;SDS011;61804;54.926;73.496;2022-09-09T02:45:07;2.97;;;1.73;;
59907;SDS011;61804;54.926;73.496;2022-09-09T02:47:42;4.88;;;3.17;;
59907;SDS011;61804;54.926;73.496;2022-09-09T02:50:34;3.58;;;1.58;;
59907;SDS011;61804;54.926;73.496;2022-09-09T02:53:09;3.53;;;3.15;;
59907;SDS011;61804;54.926;73.496;2022-09-09T02:55:55;3.75;;;2.70;;
59907;SDS011;61804;54.926;73.496;2022-09-09T02:58:25;8.00;;;2.70;;
59907;SDS011;61804;54.926;73.496;2022-09-09T03:01:04;2.78;;;2.40;;
59907;SDS011;61804;54.926;73.496;2022-09-09T03:03:37;2.50;;;1.67;;
59907;SDS011;61804;54.926;73.496;2022-09-09T03:06:12;1.40;;;1.30;;
59907;SDS011;61804;54.926;73.496;2022-09-09T03:08:45;9.27;;;3.65;;
59907;SDS011;61804;54.926;73.496;2022-09-09T03:11:13;8.60;;;2.35;;
59907;SDS011;61804;54.926;73.496;2022-09-09T03:13:42;3.78;;;1.67;;
59907;SDS011;61804;54.926;73.496;2022-09-09T03:16:11;4.57;;;1.67;;
59907;SDS011;61804;54.926;73.496;2022-09-09T03:18:44;2.17;;;1.52;;
59907;SDS011;61804;54.926;73.496;2022-09-09T03:21:12;7.57;;;2.72;;
59907;SDS011;61804;54.926;73.496;2022-09-09T03:23:42;2.70;;;1.60;;
59907;SDS011;61804;54.926;73.496;2022-09-09T03:26:16;4.43;;;1.77;;
59907;SDS011;61804;54.926;73.496;2022-09-09T03:28:56;4.22;;;2.13;;
59907;SDS011;61804;54.926;73.496;2022-09-09T03:31:26;2.47;;;1.40;;
59907;SDS011;61804;54.926;73.496;2022-09-09T03:33:58;2.65;;;1.67;;
59907;SDS011;61804;54.926;73.496;2022-09-09T03:36:31;3.33;;;1.50;;
59907;SDS011;61804;54.926;73.496;2022-09-09T03:38:58;4.35;;;1.38;;
59907;SDS011;61804;54.926;73.496;2022-09-09T03:41:30;1.60;;;1.10;;
59907;SDS011;61804;54.926;73.496;2022-09-09T03:44:09;4.47;;;2.05;;
59907;SDS011;61804;54.926;73.496;2022-09-09T03:46:39;9.40;;;2.15;;
59907;SDS011;61804;54.926;73.496;2022-09-09T03:49:07;1.33;;;1.08;;
59907;SDS011;61804;54.926;73.496;2022-09-09T03:51:37;1.65;;;0.90;;
59907;SDS011;61804;54.926;73.496;2022-09-09T03:54:07;2.30;;;1.20;;
59907;SDS011;61804;54.926;73.496;2022-09-09T03:56:43;4.22;;;2.38;;
59907;SDS011;61804;54.926;73.496;2022-09-09T03:59:13;4.28;;;2.13;;
59907;SDS011;61804;54.926;73.496;2022-09-09T04:01:42;3.78;;;1.83;;
59907;SDS011;61804;54.926;73.496;2022-09-09T04:04:10;3.03;;;1.33;;
59907;SDS011;61804;54.926;73.496;2022-09-09T04:06:41;0.82;;;0.82;;
59907;SDS011;61804;54.926;73.496;2022-09-09T04:09:08;1.17;;;1.08;;
59907;SDS011;61804;54.926;73.496;2022-09-09T04:11:35;0.98;;;0.98;;
59907;SDS011;61804;54.926;73.496;2022-09-09T04:14:13;0.93;;;0.82;;
59907;SDS011;61804;54.926;73.496;2022-09-09T04:16:40;1.20;;;1.05;;
59907;SDS011;61804;54.926;73.496;2022-09-09T04:19:10;11.05;;;1.30;;
59907;SDS011;61804;54.926;73.496;2022-09-09T04:21:42;1.50;;;1.40;;
59907;SDS011;61804;54.926;73.496;2022-09-09T04:24:09;1.20;;;1.05;;
59907;SDS011;61804;54.926;73.496;2022-09-09T04:26:37;1.95;;;1.85;;
59907;SDS011;61804;54.926;73.496;2022-09-09T04:29:05;3.00;;;1.55;;
59907;SDS011;61804;54.926;73.496;2022-09-09T04:31:35;1.17;;;1.08;;
59907;SDS011;61804;54.926;73.496;2022-09-09T04:34:02;5.63;;;1.38;;
59907;SDS011;61804;54.926;73.496;2022-09-09T04:36:32;2.65;;;1.27;;
59907;SDS011;61804;54.926;73.496;2022-09-09T04:39:03;5.50;;;4.93;;
59907;SDS011;61804;54.926;73.496;2022-09-09T04:41:32;1.98;;;1.80;;
59907;SDS011;61804;54.926;73.496;2022-09-09T04:44:04;0.82;;;0.82;;
59907;SDS011;61804;54.926;73.496;2022-09-09T04:46:33;19.25;;;2.75;;
59907;SDS011;61804;54.926;73.496;2022-09-09T04:49:01;1.50;;;1.05;;
59907;SDS011;61804;54.926;73.496;2022-09-09T04:51:31;2.38;;;1.55;;
59907;SDS011;61804;54.926;73.496;2022-09-09T04:54:02;0.77;;;0.77;;
59907;SDS011;61804;54.926;73.496;2022-09-09T04:56:30;3.60;;;1.63;;
59907;SDS011;61804;54.926;73.496;2022-09-09T04:59:00;2.58;;;1.05;;
59907;SDS011;61804;54.926;73.496;2022-09-09T05:01:37;1.33;;;1.20;;
59907;SDS011;61804;54.926;73.496;2022-09-09T05:04:06;7.90;;;1.63;;
59907;SDS011;61804;54.926;73.496;2022-09-09T05:06:36;1.90;;;1.35;;
59907;SDS011;61804;54.926;73.496;2022-09-09T05:09:06;4.60;;;0.88;;
59907;SDS011;61804;54.926;73.496;2022-09-09T05:11:33;2.95;;;1.35;;
59907;SDS011;61804;54.926;73.496;2022-09-09T05:14:16;2.97;;;1.00;;
59907;SDS011;61804;54.926;73.496;2022-09-09T05:16:44;2.42;;;1.15;;
59907;SDS011;61804;54.926;73.496;2022-09-09T05:19:12;19.80;;;1.73;;
59907;SDS011;61804;54.926;73.496;2022-09-09T05:21:49;10.73;;;1.70;;
59907;SDS011;61804;54.926;73.496;2022-09-09T05:24:30;2.15;;;1.38;;
59907;SDS011;61804;54.926;73.496;2022-09-09T05:27:00;2.47;;;1.25;;
59907;SDS011;61804;54.926;73.496;2022-09-09T05:29:29;2.40;;;1.65;;
59907;SDS011;61804;54.926;73.496;2022-09-09T05:32:01;4.40;;;1.77;;
59907;SDS011;61804;54.926;73.496;2022-09-09T05:34:29;9.20;;;2.45;;
59907;SDS011;61804;54.926;73.496;2022-09-09T05:36:56;17.73;;;2.40;;
59907;SDS011;61804;54.926;73.496;2022-09-09T05:39:26;2.72;;;0.90;;
59907;SDS011;61804;54.926;73.496;2022-09-09T05:41:54;2.15;;;1.10;;
59907;SDS011;61804;54.926;73.496;2022-09-09T05:44:22;0.82;;;0.73;;
59907;SDS011;61804;54.926;73.496;2022-09-09T05:46:54;4.95;;;2.25;;
59907;SDS011;61804;54.926;73.496;2022-09-09T05:49:22;0.90;;;0.55;;
59907;SDS011;61804;54.926;73.496;2022-09-09T05:51:50;17.33;;;2.15;;
59907;SDS011;61804;54.926;73.496;2022-09-09T05:54:19;5.80;;;1.27;;
59907;SDS011;61804;54.926;73.496;2022-09-09T05:56:49;1.35;;;1.17;;
59907;SDS011;61804;54.926;73.496;2022-09-09T05:59:18;4.55;;;1.63;;
59907;SDS011;61804;54.926;73.496;2022-09-09T06:01:46;12.80;;;3.22;;
59907;SDS011;61804;54.926;73.496;2022-09-09T06:04:33;1.45;;;0.95;;
59907;SDS011;61804;54.926;73.496;2022-09-09T06:07:07;0.65;;;0.65;;
59907;SDS011;61804;54.926;73.496;2022-09-09T06:09:36;3.78;;;1.55;;
59907;SDS011;61804;54.926;73.496;2022-09-09T06:12:07;1.77;;;0.95;;
59907;SDS011;61804;54.926;73.496;2022-09-09T06:14:36;0.80;;;0.77;;
59907;SDS011;61804;54.926;73.496;2022-09-09T06:17:04;1.02;;;1.02;;
59907;SDS011;61804;54.926;73.496;2022-09-09T06:19:32;2.17;;;1.40;;
59907;SDS011;61804;54.926;73.496;2022-09-09T06:22:00;1.20;;;1.10;;
59907;SDS011;61804;54.926;73.496;2022-09-09T06:24:30;0.85;;;0.85;;
59907;SDS011;61804;54.926;73.496;2022-09-09T06:27:00;3.03;;;1.15;;
59907;SDS011;61804;54.926;73.496;2022-09-09T06:29:31;0.43;;;0.43;;
59907;SDS011;61804;54.926;73.496;2022-09-09T06:31:59;3.45;;;1.58;;
59907;SDS011;61804;54.926;73.496;2022-09-09T06:34:27;2.70;;;1.52;;
59907;SDS011;61804;54.926;73.496;2022-09-09T06:36:57;2.50;;;1.55;;
59907;SDS011;61804;54.926;73.496;2022-09-09T06:39:27;2.05;;;0.90;;
59907;SDS011;61804;54.926;73.496;2022-09-09T06:41:55;1.08;;;0.93;;
59907;SDS011;61804;54.926;73.496;2022-09-09T06:45:03;2.40;;;2.17;;
59907;SDS011;61804;54.926;73.496;2022-09-09T06:47:40;1.90;;;0.90;;
59907;SDS011;61804;54.926;73.496;2022-09-09T06:50:09;5.57;;;3.28;;
59907;SDS011;61804;54.926;73.496;2022-09-09T06:52:39;6.00;;;1.52;;
59907;SDS011;61804;54.926;73.496;2022-09-09T06:55:10;3.13;;;2.45;;
59907;SDS011;61804;54.926;73.496;2022-09-09T06:57:47;17.38;;;3.38;;
59907;SDS011;61804;54.926;73.496;2022-09-09T07:00:21;9.95;;;1.85;;
59907;SDS011;61804;54.926;73.496;2022-09-09T07:02:53;2.72;;;2.42;;
59907;SDS011;61804;54.926;73.496;2022-09-09T07:05:21;5.18;;;1.45;;
59907;SDS011;61804;54.926;73.496;2022-09-09T07:07:49;4.13;;;1.23;;
59907;SDS011;61804;54.926;73.496;2022-09-09T07:10:20;2.15;;;1.20;;
59907;SDS011;61804;54.926;73.496;2022-09-09T07:12:51;4.00;;;2.20;;
59907;SDS011;61804;54.926;73.496;2022-09-09T07:15:20;1.10;;;0.90;;
59907;SDS011;61804;54.926;73.496;2022-09-09T07:17:49;2.90;;;1.65;;
59907;SDS011;61804;54.926;73.496;2022-09-09T07:20:17;2.85;;;0.85;;
59907;SDS011;61804;54.926;73.496;2022-09-09T07:22:46;1.58;;;1.10;;
59907;SDS011;61804;54.926;73.496;2022-09-09T07:25:20;0.63;;;0.63;;
59907;SDS011;61804;54.926;73.496;2022-09-09T07:27:53;2.15;;;1.33;;
59907;SDS011;61804;54.926;73.496;2022-09-09T07:30:21;1.17;;;0.90;;
59907;SDS011;61804;54.926;73.496;2022-09-09T07:32:59;8.02;;;0.75;;
59907;SDS011;61804;54.926;73.496;2022-09-09T07:35:27;1.05;;;0.90;;
59907;SDS011;61804;54.926;73.496;2022-09-09T07:38:01;0.80;;;0.57;;
59907;SDS011;61804;54.926;73.496;2022-09-09T07:40:39;11.68;;;8.10;;
59907;SDS011;61804;54.926;73.496;2022-09-09T07:43:17;4.88;;;0.57;;
59907;SDS011;61804;54.926;73.496;2022-09-09T07:45:45;1.38;;;1.05;;
59907;SDS011;61804;54.926;73.496;2022-09-09T07:48:13;1.70;;;1.15;;
59907;SDS011;61804;54.926;73.496;2022-09-09T07:50:41;4.43;;;1.67;;
59907;SDS011;61804;54.926;73.496;2022-09-09T07:53:16;1.90;;;1.50;;
59907;SDS011;61804;54.926;73.496;2022-09-09T07:55:44;3.45;;;1.63;;
59907;SDS011;61804;54.926;73.496;2022-09-09T07:58:12;0.80;;;0.80;;
59907;SDS011;61804;54.926;73.496;2022-09-09T08:00:39;1.58;;;0.70;;
59907;SDS011;61804;54.926;73.496;2022-09-09T08:03:20;3.90;;;1.00;;
59907;SDS011;61804;54.926;73.496;2022-09-09T08:06:01;3.70;;;1.25;;
59907;SDS011;61804;54.926;73.496;2022-09-09T08:08:37;3.60;;;1.05;;
59907;SDS011;61804;54.926;73.496;2022-09-09T08:11:17;2.45;;;1.15;;
59907;SDS011;61804;54.926;73.496;2022-09-09T08:13:55;2.72;;;1.58;;
59907;SDS011;61804;54.926;73.496;2022-09-09T08:16:24;2.90;;;1.17;;
59907;SDS011;61804;54.926;73.496;2022-09-09T08:18:57;3.25;;;1.52;;
59907;SDS011;61804;54.926;73.496;2022-09-09T08:21:35;7.95;;;1.83;;
59907;SDS011;61804;54.926;73.496;2022-09-09T08:24:03;1.05;;;1.02;;
59907;SDS011;61804;54.926;73.496;2022-09-09T08:26:33;2.25;;;1.77;;
59907;SDS011;61804;54.926;73.496;2022-09-09T08:29:12;7.32;;;1.40;;
59907;SDS011;61804;54.926;73.496;2022-09-09T08:31:51;4.72;;;1.70;;
59907;SDS011;61804;54.926;73.496;2022-09-09T08:34:20;1.83;;;1.15;;
59907;SDS011;61804;54.926;73.496;2022-09-09T08:36:54;18.25;;;2.47;;
59907;SDS011;61804;54.926;73.496;2022-09-09T08:39:31;6.47;;;1.98;;
59907;SDS011;61804;54.926;73.496;2022-09-09T08:58:05;5.10;;;1.65;;
59907;SDS011;61804;54.926;73.496;2022-09-09T09:03:43;3.22;;;1.67;;
59907;SDS011;61804;54.926;73.496;2022-09-09T09:11:12;10.43;;;4.30;;
59907;SDS011;61804;54.926;73.496;2022-09-09T09:13:43;4.82;;;1.27;;
59907;SDS011;61804;54.926;73.496;2022-09-09T09:16:50;8.68;;;1.77;;
59907;SDS011;61804;54.926;73.496;2022-09-09T09:19:12;3.00;;;1.80;;
59907;SDS011;61804;54.926;73.496;2022-09-09T09:21:43;2.22;;;1.50;;
59907;SDS011;61804;54.926;73.496;2022-09-09T09:24:19;6.30;;;1.48;;
59907;SDS011;61804;54.926;73.496;2022-09-09T09:26:48;11.48;;;2.38;;
59907;SDS011;61804;54.926;73.496;2022-09-09T09:29:19;3.53;;;2.10;;
59907;SDS011;61804;54.926;73.496;2022-09-09T09:31:54;1.75;;;1.60;;
59907;SDS011;61804;54.926;73.496;2022-09-09T09:34:25;2.17;;;1.83;;
59907;SDS011;61804;54.926;73.496;2022-09-09T09:36:57;2.70;;;2.22;;
59907;SDS011;61804;54.926;73.496;2022-09-09T09:39:29;9.55;;;2.17;;
59907;SDS011;61804;54.926;73.496;2022-09-09T09:42:07;2.38;;;1.65;;
59907;SDS011;61804;54.926;73.496;2022-09-09T09:44:38;6.68;;;2.78;;
59907;SDS011;61804;54.926;73.496;2022-09-09T09:47:13;6.10;;;1.95;;
59907;SDS011;61804;54.926;73.496;2022-09-09T09:49:55;7.53;;;2.80;;
59907;SDS011;61804;54.926;73.496;2022-09-09T09:52:27;5.28;;;2.60;;
59907;SDS011;61804;54.926;73.496;2022-09-09T09:55:05;9.35;;;3.22;;
59907;SDS011;61804;54.926;73.496;2022-09-09T09:57:50;10.23;;;3.13;;
59907;SDS011;61804;54.926;73.496;2022-09-09T10:00:20;1.75;;;1.60;;
59907;SDS011;61804;54.926;73.496;2022-09-09T10:02:54;1.85;;;1.75;;
59907;SDS011;61804;54.926;73.496;2022-09-09T10:05:26;9.68;;;2.65;;
59907;SDS011;61804;54.926;73.496;2022-09-09T10:08:02;15.07;;;3.13;;
59907;SDS011;61804;54.926;73.496;2022-09-09T10:10:50;5.88;;;1.85;;
59907;SDS011;61804;54.926;73.496;2022-09-09T10:13:25;2.47;;;1.20;;
59907;SDS011;61804;54.926;73.496;2022-09-09T10:18:39;2.75;;;1.63;;
59907;SDS011;61804;54.926;73.496;2022-09-09T10:21:20;3.85;;;2.90;;
59907;SDS011;61804;54.926;73.496;2022-09-09T10:29:15;2.92;;;2.10;;
59907;SDS011;61804;54.926;73.496;2022-09-09T10:37:32;11.02;;;1.88;;
59907;SDS011;61804;54.926;73.496;2022-09-09T10:40:27;3.17;;;2.58;;
59907;SDS011;61804;54.926;73.496;2022-09-09T10:42:54;10.38;;;3.30;;
59907;SDS011;61804;54.926;73.496;2022-09-09T10:50:57;7.28;;;3.38;;
59907;SDS011;61804;54.926;73.496;2022-09-09T10:56:08;7.03;;;2.63;;
59907;SDS011;61804;54.926;73.496;2022-09-09T11:01:15;29.83;;;5.43;;
59907;SDS011;61804;54.926;73.496;2022-09-09T11:03:46;11.68;;;3.50;;
59907;SDS011;61804;54.926;73.496;2022-09-09T11:06:18;8.70;;;2.80;;
59907;SDS011;61804;54.926;73.496;2022-09-09T11:08:46;23.30;;;4.70;;
59907;SDS011;61804;54.926;73.496;2022-09-09T11:29:04;9.73;;;4.13;;
59907;SDS011;61804;54.926;73.496;2022-09-09T11:42:06;13.82;;;2.97;;
59907;SDS011;61804;54.926;73.496;2022-09-09T11:44:35;7.78;;;3.33;;
59907;SDS011;61804;54.926;73.496;2022-09-09T11:47:14;6.88;;;4.55;;
59907;SDS011;61804;54.926;73.496;2022-09-09T11:49:43;9.50;;;3.63;;
59907;SDS011;61804;54.926;73.496;2022-09-09T11:52:23;5.20;;;3.47;;
59907;SDS011;61804;54.926;73.496;2022-09-09T11:54:54;15.90;;;4.05;;
59907;SDS011;61804;54.926;73.496;2022-09-09T11:57:24;17.05;;;5.40;;
59907;SDS011;61804;54.926;73.496;2022-09-09T11:59:53;9.35;;;5.30;;
59907;SDS011;61804;54.926;73.496;2022-09-09T12:02:24;10.85;;;4.15;;
59907;SDS011;61804;54.926;73.496;2022-09-09T12:05:05;5.88;;;2.95;;
59907;SDS011;61804;54.926;73.496;2022-09-09T12:07:41;8.27;;;4.18;;
59907;SDS011;61804;54.926;73.496;2022-09-09T12:10:27;9.93;;;3.85;;
59907;SDS011;61804;54.926;73.496;2022-09-09T12:13:07;11.52;;;4.00;;
59907;SDS011;61804;54.926;73.496;2022-09-09T12:15:36;7.53;;;3.58;;
59907;SDS011;61804;54.926;73.496;2022-09-09T12:18:21;11.35;;;4.45;;
59907;SDS011;61804;54.926;73.496;2022-09-09T12:20:52;11.27;;;4.18;;
59907;SDS011;61804;54.926;73.496;2022-09-09T12:23:32;20.98;;;4.13;;
59907;SDS011;61804;54.926;73.496;2022-09-09T12:26:16;9.07;;;5.03;;
59907;SDS011;61804;54.926;73.496;2022-09-09T12:31:49;8.32;;;3.88;;
59907;SDS011;61804;54.926;73.496;2022-09-09T12:37:17;5.47;;;2.22;;
59907;SDS011;61804;54.926;73.496;2022-09-09T12:39:56;6.30;;;3.20;;
59907;SDS011;61804;54.926;73.496;2022-09-09T12:42:39;8.93;;;3.42;;
59907;SDS011;61804;54.926;73.496;2022-09-09T12:45:16;7.90;;;3.60;;
59907;SDS011;61804;54.926;73.496;2022-09-09T12:50:18;6.80;;;4.35;;
59907;SDS011;61804;54.926;73.496;2022-09-09T12:52:48;9.30;;;3.47;;
59907;SDS011;61804;54.926;73.496;2022-09-09T12:55:19;18.75;;;4.90;;
59907;SDS011;61804;54.926;73.496;2022-09-09T12:57:58;7.10;;;3.03;;
59907;SDS011;61804;54.926;73.496;2022-09-09T13:00:27;3.25;;;2.67;;
59907;SDS011;61804;54.926;73.496;2022-09-09T13:02:59;7.47;;;3.15;;
59907;SDS011;61804;54.926;73.496;2022-09-09T13:05:36;3.80;;;3.42;;
59907;SDS011;61804;54.926;73.496;2022-09-09T13:08:05;13.35;;;4.07;;
59907;SDS011;61804;54.926;73.496;2022-09-09T13:10:49;12.48;;;3.83;;
59907;SDS011;61804;54.926;73.496;2022-09-09T13:13:28;18.33;;;6.07;;
59907;SDS011;61804;54.926;73.496;2022-09-09T13:16:01;11.77;;;6.90;;
59907;SDS011;61804;54.926;73.496;2022-09-09T13:18:34;17.15;;;8.20;;
59907;SDS011;61804;54.926;73.496;2022-09-09T13:21:02;22.40;;;10.18;;
59907;SDS011;61804;54.926;73.496;2022-09-09T13:23:39;11.93;;;9.90;;
59907;SDS011;61804;54.926;73.496;2022-09-09T13:26:18;23.67;;;12.65;;
59907;SDS011;61804;54.926;73.496;2022-09-09T13:28:54;14.15;;;12.70;;
59907;SDS011;61804;54.926;73.496;2022-09-09T13:31:29;12.02;;;9.02;;
59907;SDS011;61804;54.926;73.496;2022-09-09T13:33:59;23.05;;;9.18;;
59907;SDS011;61804;54.926;73.496;2022-09-09T13:36:51;8.85;;;5.63;;
59907;SDS011;61804;54.926;73.496;2022-09-09T13:39:20;8.63;;;4.32;;
59907;SDS011;61804;54.926;73.496;2022-09-09T13:41:48;7.85;;;4.28;;
59907;SDS011;61804;54.926;73.496;2022-09-09T13:44:22;9.43;;;4.95;;
59907;SDS011;61804;54.926;73.496;2022-09-09T13:49:38;16.08;;;7.53;;
59907;SDS011;61804;54.926;73.496;2022-09-09T13:52:14;21.55;;;10.05;;
59907;SDS011;61804;54.926;73.496;2022-09-09T13:54:50;16.73;;;12.52;;
59907;SDS011;61804;54.926;73.496;2022-09-09T13:57:19;18.23;;;12.10;;
59907;SDS011;61804;54.926;73.496;2022-09-09T13:59:47;17.92;;;9.95;;
59907;SDS011;61804;54.926;73.496;2022-09-09T14:02:15;14.73;;;9.07;;
59907;SDS011;61804;54.926;73.496;2022-09-09T14:04:44;17.58;;;12.00;;
59907;SDS011;61804;54.926;73.496;2022-09-09T14:07:15;31.27;;;12.52;;
59907;SDS011;61804;54.926;73.496;2022-09-09T14:09:43;24.58;;;13.93;;
59907;SDS011;61804;54.926;73.496;2022-09-09T14:12:18;20.90;;;11.25;;
59907;SDS011;61804;54.926;73.496;2022-09-09T14:14:46;13.05;;;9.55;;
59907;SDS011;61804;54.926;73.496;2022-09-09T14:17:13;18.88;;;10.88;;
59907;SDS011;61804;54.926;73.496;2022-09-09T14:19:46;15.65;;;13.10;;
59907;SDS011;61804;54.926;73.496;2022-09-09T14:22:25;30.50;;;16.73;;
59907;SDS011;61804;54.926;73.496;2022-09-09T14:24:52;25.90;;;19.42;;
59907;SDS011;61804;54.926;73.496;2022-09-09T14:27:20;28.40;;;22.92;;
59907;SDS011;61804;54.926;73.496;2022-09-09T14:30:05;32.42;;;19.80;;
59907;SDS011;61804;54.926;73.496;2022-09-09T14:32:34;27.70;;;16.92;;
59907;SDS011;61804;54.926;73.496;2022-09-09T14:35:13;24.90;;;21.88;;
59907;SDS011;61804;54.926;73.496;2022-09-09T14:40:19;49.40;;;31.15;;
59907;SDS011;61804;54.926;73.496;2022-09-09T14:42:47;33.35;;;23.65;;
59907;SDS011;61804;54.926;73.496;2022-09-09T14:45:14;43.40;;;22.95;;
59907;SDS011;61804;54.926;73.496;2022-09-09T14:47:42;35.72;;;23.02;;
59907;SDS011;61804;54.926;73.496;2022-09-09T14:50:12;45.95;;;24.58;;
59907;SDS011;61804;54.926;73.496;2022-09-09T14:52:40;44.10;;;25.25;;
59907;SDS011;61804;54.926;73.496;2022-09-09T14:55:18;42.60;;;26.60;;
59907;SDS011;61804;54.926;73.496;2022-09-09T14:57:55;79.18;;;40.80;;
59907;SDS011;61804;54.926;73.496;2022-09-09T15:00:23;61.00;;;34.22;;
59907;SDS011;61804;54.926;73.496;2022-09-09T15:02:56;56.55;;;28.33;;
59907;SDS011;61804;54.926;73.496;2022-09-09T15:05:28;68.03;;;31.35;;
59907;SDS011;61804;54.926;73.496;2022-09-09T15:07:58;69.40;;;36.70;;
59907;SDS011;61804;54.926;73.496;2022-09-09T15:10:26;57.15;;;39.72;;
59907;SDS011;61804;54.926;73.496;2022-09-09T15:12:59;62.83;;;44.72;;
59907;SDS011;61804;54.926;73.496;2022-09-09T15:15:26;39.70;;;29.08;;
59907;SDS011;61804;54.926;73.496;2022-09-09T15:17:59;74.47;;;36.20;;
59907;SDS011;61804;54.926;73.496;2022-09-09T15:20:38;77.57;;;36.10;;
59907;SDS011;61804;54.926;73.496;2022-09-09T15:23:15;69.15;;;34.92;;
59907;SDS011;61804;54.926;73.496;2022-09-09T15:25:51;76.45;;;35.35;;
59907;SDS011;61804;54.926;73.496;2022-09-09T15:28:20;73.88;;;37.85;;
59907;SDS011;61804;54.926;73.496;2022-09-09T15:30:52;90.70;;;39.40;;
59907;SDS011;61804;54.926;73.496;2022-09-09T15:33:19;125.57;;;40.63;;
59907;SDS011;61804;54.926;73.496;2022-09-09T15:35:52;72.95;;;41.83;;
59907;SDS011;61804;54.926;73.496;2022-09-09T15:38:20;85.35;;;44.00;;
59907;SDS011;61804;54.926;73.496;2022-09-09T15:40:55;108.43;;;51.38;;
59907;SDS011;61804;54.926;73.496;2022-09-09T15:43:31;101.95;;;48.75;;
59907;SDS011;61804;54.926;73.496;2022-09-09T15:49:08;158.00;;;73.05;;
59907;SDS011;61804;54.926;73.496;2022-09-09T15:51:44;153.48;;;78.50;;
59907;SDS011;61804;54.926;73.496;2022-09-09T15:54:23;106.50;;;66.70;;
59907;SDS011;61804;54.926;73.496;2022-09-09T15:56:55;71.63;;;43.65;;
59907;SDS011;61804;54.926;73.496;2022-09-09T15:59:28;51.70;;;26.13;;
59907;SDS011;61804;54.926;73.496;2022-09-09T16:01:55;32.85;;;27.30;;
59907;SDS011;61804;54.926;73.496;2022-09-09T16:04:29;38.05;;;30.05;;
59907;SDS011;61804;54.926;73.496;2022-09-09T16:07:02;25.27;;;22.50;;
59907;SDS011;61804;54.926;73.496;2022-09-09T16:09:32;25.20;;;20.17;;
59907;SDS011;61804;54.926;73.496;2022-09-09T16:12:06;27.05;;;19.75;;
59907;SDS011;61804;54.926;73.496;2022-09-09T16:14:39;25.85;;;18.92;;
59907;SDS011;61804;54.926;73.496;2022-09-09T16:17:08;23.90;;;19.02;;
59907;SDS011;61804;54.926;73.496;2022-09-09T16:19:41;22.02;;;19.52;;
59907;SDS011;61804;54.926;73.496;2022-09-09T16:22:09;29.98;;;18.70;;
59907;SDS011;61804;54.926;73.496;2022-09-09T16:24:37;36.63;;;22.35;;
59907;SDS011;61804;54.926;73.496;2022-09-09T16:27:07;63.70;;;28.10;;
59907;SDS011;61804;54.926;73.496;2022-09-09T16:29:37;53.15;;;24.55;;
59907;SDS011;61804;54.926;73.496;2022-09-09T16:32:16;48.95;;;28.02;;
59907;SDS011;61804;54.926;73.496;2022-09-09T16:34:45;52.42;;;32.22;;
59907;SDS011;61804;54.926;73.496;2022-09-09T16:37:12;70.13;;;37.28;;
59907;SDS011;61804;54.926;73.496;2022-09-09T16:39:40;50.03;;;36.22;;
59907;SDS011;61804;54.926;73.496;2022-09-09T16:42:07;97.80;;;49.45;;
59907;SDS011;61804;54.926;73.496;2022-09-09T16:44:36;54.97;;;36.33;;
59907;SDS011;61804;54.926;73.496;2022-09-09T16:47:03;72.07;;;39.13;;
59907;SDS011;61804;54.926;73.496;2022-09-09T16:49:32;68.70;;;36.63;;
59907;SDS011;61804;54.926;73.496;2022-09-09T16:52:01;64.28;;;37.78;;
59907;SDS011;61804;54.926;73.496;2022-09-09T16:54:33;78.45;;;39.35;;
59907;SDS011;61804;54.926;73.496;2022-09-09T16:57:05;76.70;;;39.63;;
59907;SDS011;61804;54.926;73.496;2022-09-09T16:59:33;77.35;;;34.50;;
59907;SDS011;61804;54.926;73.496;2022-09-09T17:02:02;61.83;;;37.97;;
59907;SDS011;61804;54.926;73.496;2022-09-09T17:04:32;71.30;;;45.90;;
59907;SDS011;61804;54.926;73.496;2022-09-09T17:07:09;93.10;;;66.43;;
59907;SDS011;61804;54.926;73.496;2022-09-09T17:09:38;88.63;;;70.30;;